Terminal Aerodrome Forecast
Issued by NWS

Home | Current Version | Previous Version | Text Only | Print | Product List | Glossary On
Versions: 1 2 3 4 5 6 7 8 9 10 11 12 13 14 15 16 17 18 19 20
302
FTUS44 KLZK 232340
TAFHOT
TAF
KHOT 232340Z 2400/2424 VRB02KT P6SM BKN035 OVC100
     FM240400 00000KT 6SM BR BKN100
      TEMPO 2410/2413 1SM BR
     FM241400 12004KT P6SM VCTS SCT025CB BKN100=

USA.gov is the U.S. government's official web portal to all federal, state and local government web resources and services.